Etusivu
METAR-TAF:

METAR-TAF

Lentoasemat :

Pine River Regional Airport

Pine River, Minnesota, Yhdysvallat

Leveyspiiri: 46-43-30N, Pituuspiiri: 094-23-01W, korkeus merenpinnasta: 395 m

Tämänhetkinen sää

Tämä raportti tehtiin 22 minuuttia sitten, kello 04.16 UTC
Tuuli 3 kn etelästä
Lämpötila 4°C
Kosteus 81%
Ilmanpaine 1021 hPa
Näkyvyys: 16.1 km
Hajonneita pilviä 7500 ft:n korkeudessa

METAR: KPWC 230416Z AUTO 19003KT 10SM BKN075 04/01 A3016 RMK AO2

Aika: 23:38 (04:38 UTC)


TAF: puuttuu

Säähavainnot ja -ennusteet yli 4000 lentoasemalta (METAR- ja TAF-raportit).

Käytössä olevat sääasemat on merkitty karttaan keltaisilla ja punaisilla pisteillä.

Aseta hiiri pisteen päälle nähdäksesi sääaseman nimen.

Klikkaa sitten nähdäksesi säähavainnot ja -ennusteet.

Kartan vaihtaminen: klikkaa mustalla rastilla varustettuja vihreitä pisteitä, niin voit zoomata sisään; viivalla varustettua vihreää pistettä, niin voit zoomata ulos tai vihreitä nuolia, niin pääset viereisille kartoille.


METAR-TAF: